Time;durP1;ratioP1;P1;durP2;ratioP2;P2;SDS_P1;SDS_P2;PMS_P1;PMS_P2;Temp;Humidity;BMP_temperature;BMP_pressure;BME280_temperature;BME280_humidity;BME280_pressure;Samples;Min_cycle;Max_cycle;Signal;HPM_P1;HPM_P2
2021/12/17 00:04:50;;;;;;;4.60;1.05;;;9.50;99.90;;;;;;5073041;28;20029;-72
2021/12/17 00:07:20;;;;;;;3.38;1.38;;;9.50;99.90;;;;;;5073057;28;20067;-72
2021/12/17 00:09:48;;;;;;;3.53;1.15;;;9.60;99.90;;;;;;5073192;28;20025;-74
2021/12/17 00:12:19;;;;;;;2.20;1.15;;;9.60;99.90;;;;;;5072909;28;20024;-72
2021/12/17 00:14:48;;;;;;;4.80;1.08;;;9.60;99.90;;;;;;5073424;28;20419;-72
2021/12/17 00:17:23;;;;;;;2.22;1.20;;;9.70;99.90;;;;;;5072158;28;20024;-73
2021/12/17 00:52:28;;;;;;;2.65;1.20;;;9.80;99.90;;;;;;5074255;28;20481;-72
2021/12/17 00:54:55;;;;;;;3.75;1.20;;;9.70;99.90;;;;;;5077297;28;20108;-72
2021/12/17 00:57:27;;;;;;;3.83;1.27;;;9.70;99.90;;;;;;5077055;28;20384;-73
2021/12/17 00:59:56;;;;;;;5.60;1.30;;;9.60;99.90;;;;;;5076420;28;20488;-71
2021/12/17 01:02:26;;;;;;;4.68;1.20;;;9.60;99.90;;;;;;5058400;28;20029;-72
2021/12/17 01:04:57;;;;;;;4.55;1.33;;;9.60;99.90;;;;;;5076730;28;20064;-72
2021/12/17 01:07:29;;;;;;;2.70;1.20;;;9.70;99.90;;;;;;5076902;28;20024;-72
2021/12/17 01:09:56;;;;;;;2.35;1.30;;;9.60;99.90;;;;;;5056555;28;20107;-72
2021/12/17 01:12:24;;;;;;;5.43;1.85;;;9.60;99.90;;;;;;5056278;28;20028;-72
2021/12/17 01:14:53;;;;;;;2.50;1.10;;;9.60;99.90;;;;;;5056064;28;20036;-74
2021/12/17 01:17:21;;;;;;;4.97;1.17;;;9.70;99.90;;;;;;5056114;28;20013;-73
2021/12/17 01:36:25;;;;;;;6.47;1.15;;;9.60;99.90;;;;;;5076140;28;20028;-73
2021/12/17 01:43:57;;;;;;;2.95;1.33;;;9.60;99.90;;;;;;5076218;28;20067;-72
2021/12/17 01:46:28;;;;;;;5.90;1.50;;;9.60;99.90;;;;;;5076068;28;20361;-70
2021/12/17 01:49:30;;;;;;;3.25;1.30;;;9.60;99.90;;;;;;5075828;28;20033;-71
2021/12/17 02:00:12;;;;;;;2.78;1.38;;;9.70;99.90;;;;;;5075319;28;20397;-72
2021/12/17 02:02:44;;;;;;;7.20;1.40;;;9.70;99.90;;;;;;5075758;28;20101;-73
2021/12/17 02:05:11;;;;;;;5.97;1.33;;;9.70;99.90;;;;;;5074282;28;20051;-72
2021/12/17 02:07:37;;;;;;;;;;;9.80;99.90;;;;;;5075648;28;20024;-71
2021/12/17 02:13:06;;;;;;;1.77;1.05;;;9.90;99.90;;;;;;5075693;28;20051;-73
2021/12/17 02:22:00;;;;;;;2.08;1.27;;;9.90;99.90;;;;;;5074936;28;20161;-71
2021/12/17 02:30:01;;;;;;;3.03;1.10;;;10.00;99.90;;;;;;5074757;28;20511;-71
2021/12/17 02:32:30;;;;;;;3.13;1.25;;;10.00;99.90;;;;;;5075010;28;20109;-71
2021/12/17 02:37:40;;;;;;;3.33;1.33;;;10.10;99.90;;;;;;5074681;28;20477;-71
2021/12/17 02:42:23;;;;;;;3.50;1.52;;;10.20;99.90;;;;;;5074710;28;20032;-70
2021/12/17 02:45:33;;;;;;;2.37;1.10;;;10.10;99.90;;;;;;5074503;28;20028;-72
2021/12/17 02:48:06;;;;;;;3.50;1.27;;;10.10;99.90;;;;;;5074371;28;20029;-71
2021/12/17 02:50:35;;;;;;;6.03;1.20;;;10.10;99.90;;;;;;5074323;28;20024;-71
2021/12/17 02:53:07;;;;;;;2.10;1.05;;;10.10;99.90;;;;;;5056396;28;20028;-71
2021/12/17 02:55:36;;;;;;;4.22;1.10;;;10.10;99.90;;;;;;5074243;28;20029;-72
2021/12/17 02:58:03;;;;;;;2.00;1.05;;;10.20;99.90;;;;;;5074681;28;20021;-71
2021/12/17 03:00:30;;;;;;;2.35;1.25;;;10.20;99.90;;;;;;5074092;28;20033;-71
2021/12/17 03:02:56;;;;;;;;;;;10.10;99.90;;;;;;5074814;28;20029;-71
2021/12/17 03:05:24;;;;;;;4.10;1.50;;;10.10;99.90;;;;;;5074065;28;19950;-72
2021/12/17 03:07:50;;;;;;;2.78;1.20;;;10.20;99.90;;;;;;5056032;28;20028;-71
2021/12/17 03:10:16;;;;;;;2.13;1.20;;;10.00;99.90;;;;;;5056301;28;20028;-71
2021/12/17 03:13:02;;;;;;;3.40;1.30;;;9.90;99.90;;;;;;5056166;28;20496;-71
2021/12/17 03:15:36;;;;;;;5.43;1.60;;;9.80;99.90;;;;;;5074096;28;20338;-71
2021/12/17 03:23:28;;;;;;;5.03;1.30;;;9.60;99.90;;;;;;5074342;28;20035;-71
2021/12/17 03:25:59;;;;;;;4.75;1.60;;;9.50;99.90;;;;;;5074299;28;20032;-72
2021/12/17 03:28:26;;;;;;;3.90;1.60;;;9.50;99.90;;;;;;5073621;28;20020;-71
2021/12/17 03:30:53;;;;;;;3.67;1.58;;;9.40;99.90;;;;;;5073649;28;20041;-71
2021/12/17 03:33:21;;;;;;;5.20;1.52;;;9.50;99.90;;;;;;5073528;28;20021;-71
2021/12/17 03:35:49;;;;;;;2.90;1.50;;;9.50;99.90;;;;;;5073914;28;20039;-71
2021/12/17 03:38:15;;;;;;;5.30;2.00;;;9.60;99.90;;;;;;5055331;28;20028;-71
2021/12/17 03:40:45;;;;;;;3.70;1.55;;;9.60;99.90;;;;;;5073298;28;20094;-72
2021/12/17 03:43:22;;;;;;;3.92;1.77;;;9.70;99.90;;;;;;5055391;28;20048;-71
2021/12/17 03:45:48;;;;;;;;;;;9.80;99.90;;;;;;5073701;28;20032;-70
2021/12/17 03:48:15;;;;;;;4.05;1.60;;;9.80;99.90;;;;;;5073508;28;20367;-71
2021/12/17 03:50:42;;;;;;;4.30;1.60;;;9.80;99.90;;;;;;5073425;28;20024;-71
2021/12/17 03:53:10;;;;;;;4.00;1.77;;;9.70;99.90;;;;;;5073136;28;20111;-70
2021/12/17 03:55:38;;;;;;;4.25;1.80;;;9.70;99.90;;;;;;5072792;28;20064;-71
2021/12/17 03:58:10;;;;;;;3.33;1.67;;;9.70;99.90;;;;;;5073132;28;20016;-73
2021/12/17 04:00:36;;;;;;;5.57;1.98;;;9.70;99.90;;;;;;5072924;28;20119;-73
2021/12/17 04:03:03;;;;;;;3.63;1.80;;;9.70;99.90;;;;;;5073060;28;20028;-71
2021/12/17 04:05:29;;;;;;;5.28;2.00;;;9.70;99.90;;;;;;5072997;28;20032;-71
2021/12/17 04:07:55;;;;;;;3.60;1.50;;;9.70;99.90;;;;;;5055307;28;20017;-70
2021/12/17 04:10:24;;;;;;;5.72;1.73;;;9.70;99.90;;;;;;5054326;28;20021;-71
2021/12/17 04:13:13;;;;;;;2.92;1.75;;;9.60;99.90;;;;;;5053414;28;20025;-71
2021/12/17 04:15:39;;;;;;;4.32;1.92;;;9.60;99.90;;;;;;5053423;28;20028;-72
2021/12/17 04:18:07;;;;;;;5.47;2.00;;;9.60;99.90;;;;;;5051568;28;20079;-71
2021/12/17 04:20:34;;;;;;;5.35;1.92;;;9.60;99.90;;;;;;5052762;28;20041;-73
2021/12/17 04:23:03;;;;;;;7.07;2.33;;;9.60;99.90;;;;;;5053279;28;20047;-71
2021/12/17 04:25:30;;;;;;;3.95;1.95;;;9.60;99.90;;;;;;5053242;28;20063;-71
2021/12/17 04:28:00;;;;;;;6.95;1.80;;;9.60;99.90;;;;;;5052357;28;20021;-71
2021/12/17 04:30:28;;;;;;;3.63;2.30;;;9.50;99.90;;;;;;5052413;28;20469;-71
2021/12/17 04:32:55;;;;;;;3.50;1.95;;;9.50;99.90;;;;;;5052672;28;20132;-72
2021/12/17 04:35:22;;;;;;;5.15;2.00;;;9.50;99.90;;;;;;5053119;28;20017;-72
2021/12/17 04:37:48;;;;;;;6.63;2.23;;;9.50;99.90;;;;;;5051333;28;20465;-71
2021/12/17 04:40:16;;;;;;;6.07;2.33;;;9.50;99.90;;;;;;5052609;28;20033;-71
2021/12/17 04:43:36;;;;;;;3.80;2.17;;;9.60;99.90;;;;;;5052570;28;20032;-72
2021/12/17 04:45:29;;;;;;;5.78;2.42;;;9.60;99.90;;;;;;5045154;28;20440;-71
2021/12/17 04:58:54;;;;;;;5.10;1.98;;;9.80;99.90;;;;;;5052306;28;20397;-72
2021/12/17 05:01:20;;;;;;;5.75;2.70;;;9.80;99.90;;;;;;5052924;28;20032;-71
2021/12/17 05:03:46;;;;;;;4.80;2.03;;;9.80;99.90;;;;;;5052435;28;20025;-71
2021/12/17 05:06:14;;;;;;;6.68;2.30;;;10.00;99.90;;;;;;5052896;28;20064;-71
2021/12/17 05:08:40;;;;;;;5.78;2.38;;;10.00;99.90;;;;;;5052179;28;20025;-71
2021/12/17 05:11:37;;;;;;;6.60;2.20;;;10.00;99.90;;;;;;5052227;28;20098;-71
2021/12/17 05:19:53;;;;;;;8.80;2.42;;;9.80;99.90;;;;;;5052334;28;20522;-71
2021/12/17 05:22:20;;;;;;;4.72;2.42;;;9.90;99.90;;;;;;5050915;28;20461;-70
2021/12/17 05:24:46;;;;;;;4.80;2.58;;;9.80;99.90;;;;;;5050925;28;20033;-71
2021/12/17 05:27:13;;;;;;;4.72;2.20;;;9.80;99.90;;;;;;5052012;28;20021;-71
2021/12/17 05:29:39;;;;;;;5.50;2.40;;;9.80;99.90;;;;;;5051896;28;20053;-72
2021/12/17 05:32:07;;;;;;;3.58;2.42;;;9.80;99.90;;;;;;5052271;28;20048;-72
2021/12/17 05:34:33;;;;;;;7.50;2.50;;;9.70;99.90;;;;;;5051945;28;20056;-71
2021/12/17 05:36:59;;;;;;;5.13;2.67;;;9.70;99.90;;;;;;5050995;28;20099;-67
2021/12/17 05:39:25;;;;;;;4.53;2.20;;;9.70;99.90;;;;;;5055467;28;20033;-70
2021/12/17 05:41:52;;;;;;;6.25;2.35;;;9.70;99.90;;;;;;5055745;28;20025;-70
2021/12/17 05:44:20;;;;;;;7.25;2.53;;;9.70;99.90;;;;;;5055623;28;20446;-69
2021/12/17 05:46:49;;;;;;;4.28;2.40;;;9.90;99.90;;;;;;5055558;28;20021;-70
2021/12/17 05:49:20;;;;;;;7.50;2.25;;;9.90;99.90;;;;;;5055556;28;20125;-70
2021/12/17 05:51:48;;;;;;;5.25;2.10;;;10.10;99.90;;;;;;5055483;28;20100;-70
2021/12/17 05:54:15;;;;;;;7.80;2.40;;;10.10;99.90;;;;;;5055453;28;20033;-71
2021/12/17 05:56:41;;;;;;;5.68;2.20;;;10.10;99.90;;;;;;5055312;28;20032;-70
2021/12/17 05:59:08;;;;;;;6.60;2.33;;;10.10;99.90;;;;;;5053598;28;20481;-70
2021/12/17 06:01:35;;;;;;;3.75;2.20;;;10.20;99.90;;;;;;5053953;28;20482;-71
2021/12/17 06:04:02;;;;;;;5.60;2.25;;;10.20;99.90;;;;;;5055211;28;20021;-70
2021/12/17 06:06:33;;;;;;;3.92;1.98;;;10.20;99.90;;;;;;5055396;28;20032;-71
2021/12/17 06:09:09;;;;;;;9.48;2.45;;;10.30;99.90;;;;;;5054831;28;20035;-68
2021/12/17 06:11:36;;;;;;;4.17;2.70;;;10.20;99.90;;;;;;5054551;28;20389;-71
2021/12/17 06:14:03;;;;;;;4.30;2.28;;;10.20;99.90;;;;;;5054702;28;20473;-71
2021/12/17 06:16:33;;;;;;;5.20;2.10;;;10.30;99.90;;;;;;5054711;28;20029;-72
2021/12/17 06:19:01;;;;;;;5.35;1.90;;;10.30;99.90;;;;;;5054630;28;20029;-73
2021/12/17 06:21:27;;;;;;;4.72;2.20;;;10.30;99.90;;;;;;5054895;28;20071;-74
2021/12/17 06:23:53;;;;;;;4.82;2.33;;;10.30;99.90;;;;;;5053138;28;20067;-72
2021/12/17 06:26:20;;;;;;;7.15;2.35;;;10.30;99.90;;;;;;5054608;28;20051;-72
2021/12/17 06:28:50;;;;;;;5.00;2.40;;;10.30;99.90;;;;;;5054672;28;20845;-74
2021/12/17 06:31:28;;;;;;;6.15;2.42;;;10.20;99.90;;;;;;5054393;28;20481;-73
2021/12/17 06:33:54;;;;;;;4.88;2.28;;;10.10;99.90;;;;;;5054545;28;20069;-74
2021/12/17 06:36:22;;;;;;;6.27;2.60;;;10.30;99.90;;;;;;5054183;28;20029;-73
2021/12/17 06:38:48;;;;;;;4.80;2.30;;;10.80;99.90;;;;;;5054596;28;20055;-74
2021/12/17 06:41:14;;;;;;;7.70;2.17;;;11.40;99.90;;;;;;5054367;28;20112;-76
2021/12/17 06:43:42;;;;;;;5.70;2.40;;;12.00;99.90;;;;;;5054900;28;20434;-75
2021/12/17 06:48:42;;;;;;;4.95;2.20;;;13.20;99.90;;;;;;5053557;28;20111;-73
2021/12/17 06:57:39;;;;;;;7.35;2.25;;;15.40;99.20;;;;;;5052998;28;20135;-72
2021/12/17 07:08:26;;;;;;;8.85;2.60;;;18.20;93.70;;;;;;5073103;28;20566;-74
2021/12/17 07:10:27;;;;;;;11.10;2.28;;;18.40;93.00;;;;;;5072321;28;20056;-73
2021/12/17 07:24:36;;;;;;;15.63;2.60;;;17.70;92.50;;;;;;5073372;28;20139;-74
2021/12/17 07:39:53;;;;;;;7.53;2.33;;;18.60;91.50;;;;;;5072976;28;20123;-74
2021/12/17 07:42:19;;;;;;;4.32;1.67;;;18.80;91.70;;;;;;5073490;28;20491;-73
2021/12/17 07:44:46;;;;;;;12.77;2.35;;;18.00;92.40;;;;;;5073495;28;20025;-70
2021/12/17 07:47:12;;;;;;;4.05;1.80;;;18.00;92.90;;;;;;5073403;28;20028;-73
2021/12/17 07:49:39;;;;;;;4.97;2.20;;;18.00;92.80;;;;;;5071456;28;20492;-70
2021/12/17 07:52:06;;;;;;;4.28;1.70;;;17.30;93.70;;;;;;5070658;28;20020;-73
2021/12/17 07:54:33;;;;;;;6.03;2.30;;;17.10;94.10;;;;;;5054230;28;20028;-73
2021/12/17 07:57:00;;;;;;;10.57;2.65;;;16.80;94.70;;;;;;5072334;28;20362;-73
2021/12/17 07:59:26;;;;;;;;;;;16.20;95.00;;;;;;5072591;28;20089;-71
2021/12/17 08:01:52;;;;;;;5.07;2.05;;;16.00;95.50;;;;;;5053066;28;20114;-74
2021/12/17 08:04:18;;;;;;;9.90;1.90;;;15.70;95.50;;;;;;5071545;28;20546;-74
2021/12/17 08:06:45;;;;;;;4.25;2.17;;;15.40;96.20;;;;;;5072104;28;20067;-74
2021/12/17 08:09:11;;;;;;;6.70;2.40;;;15.10;96.50;;;;;;5073106;28;20085;-73
2021/12/17 08:11:39;;;;;;;5.05;2.05;;;15.10;97.00;;;;;;5072839;28;20017;-73
2021/12/17 08:14:11;;;;;;;17.95;3.25;;;14.80;97.60;;;;;;5072327;28;20059;-73
2021/12/17 08:27:28;;;;;;;5.22;1.98;;;13.80;98.70;;;;;;5072202;28;20063;-73
2021/12/17 08:30:08;;;;;;;7.47;1.90;;;13.60;99.10;;;;;;5071872;28;20064;-72
2021/12/17 08:32:35;;;;;;;4.75;2.30;;;13.60;99.00;;;;;;5072330;28;20052;-73
2021/12/17 08:35:03;;;;;;;4.63;1.90;;;13.60;99.10;;;;;;5072309;28;20523;-72
2021/12/17 08:37:31;;;;;;;7.57;1.92;;;13.50;99.10;;;;;;5071899;28;20074;-71
2021/12/17 08:39:58;;;;;;;11.48;2.45;;;13.40;99.30;;;;;;5053909;28;20035;-72
2021/12/17 08:42:24;;;;;;;4.90;2.00;;;13.40;99.50;;;;;;5054089;28;20111;-72
2021/12/17 08:44:50;;;;;;;4.53;2.17;;;13.40;99.30;;;;;;5054172;28;20024;-72
2021/12/17 08:47:17;;;;;;;5.43;2.10;;;13.40;99.30;;;;;;5071740;28;20027;-72
2021/12/17 08:49:44;;;;;;;7.63;2.05;;;13.30;99.50;;;;;;5071816;28;20028;-72
2021/12/17 08:52:13;;;;;;;6.82;2.00;;;13.10;99.90;;;;;;5054143;28;20024;-71
2021/12/17 08:54:39;;;;;;;5.07;2.55;;;12.90;99.90;;;;;;5053822;28;20054;-72
2021/12/17 08:57:06;;;;;;;9.45;3.15;;;12.90;99.90;;;;;;5053045;28;20134;-71
2021/12/17 08:59:33;;;;;;;5.80;2.10;;;12.90;99.90;;;;;;5053800;28;20027;-72
2021/12/17 09:01:59;;;;;;;7.80;2.45;;;13.00;99.90;;;;;;5071827;28;20524;-71
2021/12/17 09:04:27;;;;;;;5.95;2.20;;;13.10;99.90;;;;;;5072156;28;20336;-71
2021/12/17 09:06:54;;;;;;;9.32;2.42;;;12.90;99.90;;;;;;5071494;28;20025;-72
2021/12/17 09:09:22;;;;;;;5.13;2.30;;;12.90;99.90;;;;;;5053383;28;20111;-72
2021/12/17 09:11:50;;;;;;;4.93;2.47;;;12.90;99.90;;;;;;5071589;28;20114;-72
2021/12/17 09:14:19;;;;;;;3.72;2.17;;;12.80;99.90;;;;;;5074803;28;20032;-72
2021/12/17 09:16:49;;;;;;;4.80;2.50;;;12.80;99.90;;;;;;5075780;28;20094;-72
2021/12/17 09:19:15;;;;;;;3.50;2.20;;;12.80;99.90;;;;;;5075921;28;20082;-73
2021/12/17 09:21:42;;;;;;;7.57;2.60;;;12.80;99.90;;;;;;5075578;28;20098;-74
2021/12/17 09:24:09;;;;;;;;;;;12.70;99.90;;;;;;5075679;28;20483;-73
2021/12/17 09:26:37;;;;;;;32.53;6.40;;;12.70;99.90;;;;;;5057810;28;19950;-75
2021/12/17 09:29:10;;;;;;;6.50;2.90;;;12.70;99.90;;;;;;5075607;28;20045;-73
2021/12/17 09:31:36;;;;;;;8.70;3.05;;;12.70;99.90;;;;;;5057340;28;20476;-73
2021/12/17 09:34:03;;;;;;;634.47;85.80;;;12.80;99.90;;;;;;5075561;28;20019;-73
2021/12/17 09:36:29;;;;;;;8.63;2.72;;;13.10;99.90;;;;;;5075753;28;20058;-72
2021/12/17 09:38:56;;;;;;;8.10;2.50;;;13.30;99.90;;;;;;5075632;28;20461;-71
2021/12/17 09:41:24;;;;;;;30.67;3.85;;;13.50;99.90;;;;;;5075180;28;20054;-73
2021/12/17 09:43:50;;;;;;;6.13;2.38;;;14.00;99.90;;;;;;5056282;28;20341;-72
2021/12/17 09:46:17;;;;;;;3.60;1.90;;;14.30;99.40;;;;;;5057018;28;20032;-70
2021/12/17 09:48:48;;;;;;;3.45;1.88;;;14.20;99.20;;;;;;5075106;28;20106;-73
2021/12/17 09:51:15;;;;;;;11.50;2.85;;;14.30;98.80;;;;;;5056772;28;20021;-73
2021/12/17 09:53:42;;;;;;;5.30;2.10;;;14.20;98.90;;;;;;5074769;28;20086;-71
2021/12/17 09:56:08;;;;;;;79.95;8.88;;;14.30;99.00;;;;;;5074936;28;20358;-73
2021/12/17 09:58:35;;;;;;;18.20;3.72;;;14.50;98.60;;;;;;5075565;28;20095;-72
2021/12/17 10:01:02;;;;;;;7.20;2.80;;;14.80;98.40;;;;;;5075253;28;20082;-72
2021/12/17 10:03:28;;;;;;;19.23;3.85;;;15.20;98.40;;;;;;5074773;28;20370;-72
2021/12/17 10:05:55;;;;;;;8.18;3.80;;;15.60;97.40;;;;;;5074638;28;20055;-72
2021/12/17 10:08:23;;;;;;;;;;;15.90;96.80;;;;;;5075323;28;20067;-71
2021/12/17 10:10:53;;;;;;;12.38;3.60;;;16.10;96.50;;;;;;5056013;28;19970;-73
2021/12/17 10:13:28;;;;;;;9.32;2.90;;;16.00;96.20;;;;;;5075103;28;20047;-72
2021/12/17 10:15:58;;;;;;;7.03;3.50;;;15.80;96.50;;;;;;5073428;28;20129;-74
2021/12/17 10:18:40;;;;;;;6.72;2.92;;;15.50;97.20;;;;;;5055681;28;20394;-72
2021/12/17 10:21:12;;;;;;;10.48;3.60;;;15.70;97.10;;;;;;5054783;28;20064;-72
2021/12/17 10:23:42;;;;;;;10.60;3.08;;;15.90;96.70;;;;;;5052700;28;20036;-72
2021/12/17 10:26:12;;;;;;;9.55;2.90;;;15.70;97.10;;;;;;5053134;28;20029;-72
2021/12/17 10:28:52;;;;;;;31.85;7.45;;;15.60;97.00;;;;;;5053858;28;20028;-73
2021/12/17 10:31:19;;;;;;;5.90;3.42;;;15.40;97.40;;;;;;5037879;28;20140;-71
2021/12/17 10:33:52;;;;;;;;;;;15.20;97.80;;;;;;5053283;28;20064;-72
2021/12/17 10:36:42;;;;;;;11.18;3.72;;;15.30;97.90;;;;;;5054249;28;20253;-71
2021/12/17 10:39:24;;;;;;;8.38;2.90;;;15.10;97.60;;;;;;5049764;28;20029;-71
2021/12/17 10:41:52;;;;;;;4.88;2.67;;;15.00;98.10;;;;;;5054192;28;20094;-72
2021/12/17 10:44:20;;;;;;;5.53;3.00;;;15.00;98.00;;;;;;5054376;28;20021;-72
2021/12/17 10:49:54;;;;;;;17.75;4.97;;;15.20;98.10;;;;;;5000526;28;20116;-72
2021/12/17 10:52:29;;;;;;;5.22;2.63;;;15.10;97.90;;;;;;5012588;28;20173;-74
2021/12/17 10:55:16;;;;;;;5.75;2.80;;;15.10;97.60;;;;;;4995492;28;20030;-75
2021/12/17 10:57:43;;;;;;;6.85;3.13;;;14.80;98.20;;;;;;5011782;28;20501;-73
2021/12/17 11:00:11;;;;;;;12.15;4.78;;;14.60;98.50;;;;;;5011386;28;20062;-75
2021/12/17 11:02:38;;;;;;;12.40;4.55;;;14.30;99.20;;;;;;5011385;28;20068;-74
2021/12/17 11:05:25;;;;;;;21.98;5.85;;;14.30;99.50;;;;;;5010857;28;20033;-72
2021/12/17 11:07:52;;;;;;;13.10;3.60;;;14.40;99.50;;;;;;5011197;28;20128;-73
2021/12/17 11:10:31;;;;;;;28.75;6.70;;;14.40;99.30;;;;;;5011212;28;20076;-73
2021/12/17 11:12:57;;;;;;;141.93;18.08;;;14.50;99.30;;;;;;5011417;28;20038;-72
2021/12/17 11:15:30;;;;;;;17.88;4.18;;;14.60;99.50;;;;;;5010824;28;20057;-73
2021/12/17 11:18:00;;;;;;;7.10;2.72;;;14.70;99.30;;;;;;5010404;28;20121;-72
2021/12/17 11:20:29;;;;;;;6.55;3.08;;;14.60;99.10;;;;;;4993702;28;20042;-73
2021/12/17 11:23:03;;;;;;;7.22;3.53;;;14.50;99.30;;;;;;5010995;28;20455;-72
2021/12/17 11:25:30;;;;;;;7.20;3.35;;;14.60;99.40;;;;;;5018843;28;20311;-72
2021/12/17 11:27:57;;;;;;;22.40;5.82;;;14.50;99.50;;;;;;5051638;28;20119;-73
2021/12/17 11:30:29;;;;;;;186.00;22.70;;;14.50;99.90;;;;;;5052723;28;20045;-73
2021/12/17 11:32:56;;;;;;;18.40;4.93;;;14.70;99.80;;;;;;5052107;28;20045;-73
2021/12/17 11:35:26;;;;;;;12.50;4.40;;;14.70;99.60;;;;;;5053051;28;20024;-73
2021/12/17 11:37:56;;;;;;;11.00;4.40;;;14.50;99.70;;;;;;5052709;28;20032;-73
2021/12/17 11:40:27;;;;;;;18.38;4.88;;;14.60;99.70;;;;;;5053008;28;20040;-73
2021/12/17 11:43:14;;;;;;;17.50;4.55;;;14.40;99.90;;;;;;5053104;28;20500;-73
2021/12/17 11:45:40;;;;;;;199.93;25.25;;;14.30;99.90;;;;;;5052863;28;20029;-73
2021/12/17 11:48:19;;;;;;;11.43;3.45;;;14.40;99.90;;;;;;5052405;28;20017;-74
2021/12/17 11:51:11;;;;;;;10.60;3.72;;;14.30;99.80;;;;;;5064187;28;20142;-74
2021/12/17 11:54:03;;;;;;;7.00;3.42;;;14.20;99.90;;;;;;5072216;28;20451;-73
2021/12/17 11:56:47;;;;;;;10.82;3.75;;;14.20;99.90;;;;;;5053264;28;20039;-73
2021/12/17 11:59:26;;;;;;;109.32;13.07;;;14.10;99.90;;;;;;5071647;28;20032;-73
2021/12/17 12:02:14;;;;;;;20.60;5.90;;;14.20;99.90;;;;;;5071211;28;20028;-74
2021/12/17 12:04:47;;;;;;;16.23;5.30;;;14.20;99.90;;;;;;5070885;28;20103;-74
2021/12/17 12:07:19;;;;;;;11.95;4.00;;;14.40;99.90;;;;;;5071359;28;20025;-73
2021/12/17 12:10:21;;;;;;;10.95;3.70;;;14.40;99.90;;;;;;5071363;28;20020;-73
2021/12/17 12:12:49;;;;;;;12.95;3.38;;;14.20;99.90;;;;;;5051276;28;20116;-74
2021/12/17 12:15:27;;;;;;;10.25;4.13;;;14.10;99.90;;;;;;5053189;28;20095;-73
2021/12/17 12:18:06;;;;;;;9.73;3.90;;;14.10;99.90;;;;;;5071210;28;20044;-73
2021/12/17 12:20:50;;;;;;;8.85;3.15;;;14.10;99.90;;;;;;5072012;28;20028;-73
2021/12/17 12:23:18;;;;;;;7.50;3.58;;;14.20;99.90;;;;;;5071766;28;20393;-73
2021/12/17 12:26:11;;;;;;;6.40;3.75;;;14.10;99.90;;;;;;5071899;28;20036;-73
2021/12/17 12:28:46;;;;;;;8.43;3.42;;;14.00;99.90;;;;;;5071972;28;20024;-73
2021/12/17 12:31:18;;;;;;;9.05;3.38;;;13.90;99.90;;;;;;5053601;28;20047;-73
2021/12/17 12:34:03;;;;;;;14.65;3.85;;;14.00;99.90;;;;;;5072093;28;20102;-73
2021/12/17 12:36:58;;;;;;;7.22;2.78;;;14.10;99.90;;;;;;5071688;28;20145;-74
2021/12/17 12:39:27;;;;;;;4.95;2.60;;;14.20;99.90;;;;;;5071579;28;20139;-74
2021/12/17 12:42:05;;;;;;;9.20;2.90;;;14.60;99.40;;;;;;5053901;28;20491;-73
2021/12/17 12:44:49;;;;;;;8.50;3.00;;;15.00;99.20;;;;;;5072276;28;20538;-73
2021/12/17 12:47:24;;;;;;;12.70;3.50;;;15.10;98.60;;;;;;5054206;28;20044;-73
2021/12/17 12:49:59;;;;;;;7.65;3.10;;;15.30;98.40;;;;;;5078686;28;20020;-74
2021/12/17 12:52:39;;;;;;;6.97;2.67;;;15.50;98.40;;;;;;5078260;28;20027;-72
2021/12/17 12:55:20;;;;;;;6.15;3.40;;;15.60;98.00;;;;;;5078166;28;20140;-73
2021/12/17 12:57:53;;;;;;;11.10;3.63;;;15.70;97.40;;;;;;5078363;28;20372;-73
2021/12/17 13:00:43;;;;;;;6.82;3.25;;;15.90;97.80;;;;;;5059232;28;20063;-74
2021/12/17 13:03:14;;;;;;;9.48;3.72;;;15.90;98.10;;;;;;5060267;28;20461;-74
2021/12/17 13:05:45;;;;;;;9.90;3.35;;;16.00;98.10;;;;;;5079072;28;20063;-74
2021/12/17 13:08:14;;;;;;;9.98;2.92;;;15.80;98.10;;;;;;5061204;28;20024;-75
2021/12/17 13:10:44;;;;;;;11.10;3.17;;;15.90;98.00;;;;;;5078337;28;20016;-74
2021/12/17 13:13:38;;;;;;;5.82;3.08;;;15.60;98.40;;;;;;5078470;28;20029;-77
2021/12/17 13:16:20;;;;;;;10.10;3.17;;;15.80;99.60;;;;;;5061040;28;20441;-77
2021/12/17 13:21:58;;;;;;;11.20;3.53;;;16.20;97.80;;;;;;5078911;28;20575;-75
2021/12/17 13:24:35;;;;;;;372.23;38.65;;;16.20;99.90;;;;;;5078891;28;20032;-74
2021/12/17 13:27:19;;;;;;;55.92;8.13;;;16.20;97.80;;;;;;5079250;28;20028;-76
2021/12/17 13:29:46;;;;;;;105.95;13.25;;;16.10;99.90;;;;;;5078189;28;20409;-74
2021/12/17 13:32:17;;;;;;;349.95;32.17;;;16.00;97.80;;;;;;5078092;28;20029;-74
2021/12/17 13:34:49;;;;;;;18.60;4.00;;;16.10;97.90;;;;;;5060252;28;20021;-74
2021/12/17 13:37:34;;;;;;;6.95;2.58;;;16.30;97.00;;;;;;5078617;28;20059;-73
2021/12/17 13:40:07;;;;;;;23.88;3.88;;;16.50;99.90;;;;;;5060209;28;20067;-73
2021/12/17 13:42:42;;;;;;;4.63;2.33;;;16.30;96.00;;;;;;5078436;28;20024;-74
2021/12/17 13:45:21;;;;;;;8.13;3.30;;;16.20;96.30;;;;;;5060669;28;20028;-75
2021/12/17 13:47:50;;;;;;;12.63;2.65;;;15.90;96.30;;;;;;5078517;28;20032;-76
2021/12/17 13:50:25;;;;;;;7.53;2.80;;;15.60;97.50;;;;;;5078317;28;20047;-73
2021/12/17 13:52:58;;;;;;;11.00;2.95;;;15.50;97.50;;;;;;5078182;28;20024;-73
2021/12/17 13:55:41;;;;;;;6.72;2.80;;;15.40;98.30;;;;;;5078090;28;20028;-74
2021/12/17 13:58:12;;;;;;;4.88;2.28;;;14.90;98.50;;;;;;5078567;28;20024;-73
2021/12/17 14:00:52;;;;;;;11.93;3.13;;;14.80;98.80;;;;;;5075091;28;20044;-74
2021/12/17 14:03:21;;;;;;;7.28;2.10;;;14.70;99.10;;;;;;5074926;28;20024;-74
2021/12/17 14:05:51;;;;;;;29.30;5.32;;;14.60;98.80;;;;;;5075376;28;20028;-75
2021/12/17 14:08:21;;;;;;;10.65;2.53;;;14.60;99.70;;;;;;5074910;28;20029;-74
2021/12/17 14:10:49;;;;;;;9.18;4.00;;;14.40;99.30;;;;;;5056660;28;20113;-75
2021/12/17 14:13:22;;;;;;;24.27;4.00;;;14.40;99.90;;;;;;5075253;28;20457;-75
2021/12/17 14:15:49;;;;;;;34.42;3.50;;;14.50;99.70;;;;;;5074622;28;20029;-76
2021/12/17 14:18:18;;;;;;;15.75;3.03;;;14.70;99.60;;;;;;5074948;28;20465;-75
2021/12/17 14:20:56;;;;;;;11.32;3.58;;;15.00;99.30;;;;;;5075188;28;20366;-75
2021/12/17 14:23:27;;;;;;;5.75;2.90;;;15.10;99.20;;;;;;5075143;28;20032;-75
2021/12/17 14:26:13;;;;;;;17.77;3.92;;;15.20;99.70;;;;;;5075383;28;20028;-74
2021/12/17 14:28:40;;;;;;;12.02;3.92;;;15.40;98.30;;;;;;5026111;28;20189;-70
2021/12/17 14:31:18;;;;;;;10.65;3.55;;;15.60;98.40;;;;;;5074763;28;20103;-72
2021/12/17 14:33:49;;;;;;;11.63;3.83;;;15.70;98.20;;;;;;5074747;28;20032;-75
2021/12/17 14:36:20;;;;;;;20.35;5.30;;;15.60;98.30;;;;;;5074739;28;20027;-74
2021/12/17 14:38:52;;;;;;;7.15;3.20;;;15.50;98.70;;;;;;5074356;28;20545;-74
2021/12/17 14:41:32;;;;;;;6.25;3.00;;;15.50;98.00;;;;;;5056692;28;20036;-74
2021/12/17 14:44:04;;;;;;;6.75;3.17;;;15.50;97.80;;;;;;5075174;28;20044;-74
2021/12/17 14:46:48;;;;;;;11.43;3.50;;;15.70;97.90;;;;;;5074378;28;20037;-74
2021/12/17 15:00:31;;;;;;;9.30;3.10;;;15.60;98.30;;;;;;5074354;28;20091;-74
2021/12/17 15:05:42;;;;;;;13.05;3.75;;;15.60;98.20;;;;;;5074754;28;20091;-74
2021/12/17 15:08:09;;;;;;;11.85;4.28;;;15.60;99.90;;;;;;5056099;28;20058;-74
2021/12/17 15:10:36;;;;;;;12.48;4.35;;;15.50;98.70;;;;;;5055535;28;20123;-74
2021/12/17 15:13:06;;;;;;;11.25;3.72;;;15.40;98.80;;;;;;5074254;28;20033;-76
2021/12/17 15:15:37;;;;;;;13.75;4.25;;;15.20;98.90;;;;;;5055674;28;20029;-78
2021/12/17 15:18:19;;;;;;;11.45;4.22;;;15.30;99.30;;;;;;5057438;28;20037;-78
2021/12/17 15:20:56;;;;;;;10.48;4.03;;;15.20;98.80;;;;;;5057026;28;20063;-78
2021/12/17 15:23:24;;;;;;;27.98;4.22;;;15.20;98.70;;;;;;5073752;28;20028;-75
2021/12/17 15:25:52;;;;;;;85.68;9.70;;;15.20;98.60;;;;;;5056764;28;20044;-74
2021/12/17 15:28:22;;;;;;;9.27;3.42;;;15.00;99.00;;;;;;5073803;28;20031;-75
2021/12/17 15:30:58;;;;;;;8.43;3.50;;;15.00;98.50;;;;;;5073471;28;20067;-75
2021/12/17 15:33:25;;;;;;;34.08;5.30;;;14.90;98.50;;;;;;5055697;28;20108;-75
2021/12/17 15:35:52;;;;;;;38.00;6.72;;;14.80;98.50;;;;;;5073689;28;20025;-74
2021/12/17 15:38:19;;;;;;;14.15;4.25;;;14.80;98.70;;;;;;5072718;28;20025;-75
2021/12/17 15:40:47;;;;;;;10.73;3.80;;;14.70;98.90;;;;;;5074051;28;20041;-74
2021/12/17 15:43:15;;;;;;;15.98;4.60;;;14.60;98.90;;;;;;5074005;28;20028;-75
2021/12/17 15:45:44;;;;;;;11.40;3.65;;;14.50;99.00;;;;;;5073430;28;20024;-77
2021/12/17 15:48:14;;;;;;;6.13;2.80;;;14.30;99.30;;;;;;5073123;28;20125;-76
2021/12/17 15:51:02;;;;;;;6.38;2.80;;;14.10;99.10;;;;;;5055293;28;20121;-76
2021/12/17 15:53:29;;;;;;;7.43;3.40;;;14.00;99.40;;;;;;5073670;28;20043;-78
2021/12/17 15:55:55;;;;;;;7.25;3.20;;;13.80;99.60;;;;;;5055296;28;20016;-76
2021/12/17 15:58:28;;;;;;;9.20;3.80;;;13.70;99.90;;;;;;5073226;28;20097;-77
2021/12/17 16:00:54;;;;;;;10.55;4.38;;;13.50;99.90;;;;;;5055212;28;20123;-76
2021/12/17 16:03:27;;;;;;;10.10;4.85;;;13.40;99.90;;;;;;5073446;28;20033;-76
2021/12/17 16:05:54;;;;;;;8.90;3.75;;;13.30;99.90;;;;;;5073032;28;20048;-76
2021/12/17 16:08:21;;;;;;;9.40;4.82;;;13.30;99.90;;;;;;5073072;28;20024;-76